createdAt,value
2019-04-26T00:02:31.519Z,15.07
2019-04-26T00:05:03.784Z,15.09
2019-04-26T00:07:35.673Z,15.07
2019-04-26T00:10:16.072Z,15.08
2019-04-26T00:13:04.017Z,15.24
2019-04-26T00:15:50.145Z,15.16
2019-04-26T00:18:23.190Z,15.17
2019-04-26T00:20:55.183Z,15.10
2019-04-26T00:23:27.232Z,15.25
2019-04-26T00:25:58.813Z,15.36
2019-04-26T00:28:30.793Z,15.52
2019-04-26T00:31:02.963Z,15.61
2019-04-26T00:33:34.904Z,15.51
2019-04-26T00:36:06.196Z,15.54
2019-04-26T00:38:38.116Z,15.68
2019-04-26T00:41:09.991Z,15.57
2019-04-26T00:43:41.573Z,15.53
2019-04-26T00:46:15.458Z,15.56
2019-04-26T00:48:48.272Z,15.55
2019-04-26T00:51:23.441Z,15.56
2019-04-26T00:53:56.408Z,15.35
2019-04-26T00:56:37.040Z,15.46
2019-04-26T00:59:15.091Z,15.54
2019-04-26T01:01:58.833Z,15.49
2019-04-26T01:04:33.333Z,15.41
2019-04-26T01:07:07.948Z,15.58
2019-04-26T01:09:42.384Z,15.48
2019-04-26T01:12:17.816Z,15.42
2019-04-26T01:14:49.064Z,15.53
2019-04-26T01:17:22.367Z,15.49
2019-04-26T01:20:01.608Z,15.38
2019-04-26T01:22:36.099Z,15.17
2019-04-26T01:25:07.591Z,15.05
2019-04-26T01:27:40.378Z,15.16
2019-04-26T01:30:16.260Z,15.21
2019-04-26T01:32:48.792Z,15.16
2019-04-26T01:35:22.101Z,14.97
2019-04-26T01:37:55.932Z,14.93
2019-04-26T01:40:29.852Z,15.10
2019-04-26T01:43:13.450Z,15.07
2019-04-26T01:45:52.261Z,15.00
2019-04-26T01:48:48.752Z,14.93
2019-04-26T01:51:35.515Z,14.88
2019-04-26T01:54:12.855Z,14.86
2019-04-26T01:56:45.163Z,14.86
2019-04-26T01:59:22.548Z,14.84
2019-04-26T02:02:09.155Z,14.84
2019-04-26T02:04:44.309Z,15.00
2019-04-26T02:07:36.111Z,15.10
2019-04-26T02:10:15.107Z,15.07
2019-04-26T02:12:49.107Z,15.03
2019-04-26T02:15:29.177Z,15.05
2019-04-26T02:18:04.308Z,15.08
2019-04-26T02:21:07.193Z,15.08
2019-04-26T02:23:56.735Z,15.10
2019-04-26T02:26:35.501Z,15.06
2019-04-26T02:29:13.636Z,15.06
2019-04-26T02:31:51.060Z,15.03
2019-04-26T02:34:30.778Z,14.99
2019-04-26T02:37:05.983Z,14.93
2019-04-26T02:39:42.128Z,14.86
2019-04-26T02:42:30.211Z,14.79
2019-04-26T02:46:02.625Z,14.78
2019-04-26T02:49:16.619Z,14.78
2019-04-26T02:52:17.536Z,14.58
2019-04-26T02:55:06.600Z,14.48
2019-04-26T02:57:46.236Z,14.46
2019-04-26T03:00:21.956Z,14.36
2019-04-26T03:03:07.626Z,14.34
2019-04-26T03:05:43.809Z,14.32
2019-04-26T03:08:20.703Z,14.20
2019-04-26T03:11:17.946Z,14.11
2019-04-26T03:13:59.221Z,14.06
2019-04-26T03:16:52.284Z,14.09
2019-04-26T03:19:59.953Z,14.21
2019-04-26T03:23:10.844Z,14.24
2019-04-26T03:26:37.441Z,14.16
2019-04-26T03:29:51.012Z,14.16
2019-04-26T03:33:05.954Z,14.12
2019-04-26T03:36:24.500Z,14.08
2019-04-26T03:39:37.163Z,14.02
2019-04-26T03:42:55.034Z,13.95
2019-04-26T03:46:07.691Z,13.94
2019-04-26T03:49:38.058Z,13.89
2019-04-26T03:52:51.425Z,13.85
2019-04-26T03:56:55.401Z,13.87
2019-04-26T03:59:54.555Z,13.79
2019-04-26T04:03:00.254Z,13.66
2019-04-26T04:05:45.590Z,13.67
2019-04-26T04:08:26.489Z,13.64
2019-04-26T04:11:03.199Z,13.77
2019-04-26T04:13:55.283Z,13.67
2019-04-26T04:17:24.013Z,13.71
2019-04-26T04:21:01.693Z,13.76
2019-04-26T04:23:50.567Z,13.69
2019-04-26T04:26:39.611Z,13.55
2019-04-26T04:30:08.059Z,13.52
2019-04-26T04:33:28.181Z,13.73
2019-04-26T04:36:13.551Z,13.77
2019-04-26T04:39:32.745Z,13.75
2019-04-26T04:42:33.443Z,13.78
2019-04-26T04:45:59.083Z,13.84
2019-04-26T04:49:05.840Z,13.98
2019-04-26T04:52:24.378Z,14.12
2019-04-26T04:55:34.342Z,14.24
2019-04-26T04:58:18.721Z,14.32
2019-04-26T05:02:14.074Z,14.43
2019-04-26T05:05:51.092Z,14.57
2019-04-26T05:09:07.904Z,14.67
2019-04-26T05:12:01.392Z,14.80
2019-04-26T05:15:18.116Z,14.91
2019-04-26T05:18:17.873Z,15.01
2019-04-26T05:21:37.727Z,15.20
2019-04-26T05:24:49.572Z,15.37
2019-04-26T05:28:14.483Z,15.66
2019-04-26T05:31:29.930Z,15.81
2019-04-26T05:34:31.207Z,15.96
2019-04-26T05:37:39.681Z,16.04
2019-04-26T05:40:37.899Z,16.07
2019-04-26T05:43:40.622Z,16.09
2019-04-26T05:47:01.150Z,16.12
2019-04-26T05:51:02.106Z,16.18
2019-04-26T05:54:18.497Z,16.25
2019-04-26T05:57:35.502Z,16.40
2019-04-26T06:00:59.990Z,16.48
2019-04-26T06:04:27.083Z,16.60
2019-04-26T06:07:36.365Z,16.71
2019-04-26T06:10:33.335Z,16.87
2019-04-26T06:14:12.892Z,16.93
2019-04-26T06:17:53.420Z,17.02
2019-04-26T06:20:47.040Z,17.14
2019-04-26T06:23:52.374Z,17.20
2019-04-26T06:27:13.794Z,17.28
2019-04-26T06:29:58.827Z,17.39
2019-04-26T06:32:56.210Z,17.50
2019-04-26T06:35:24.192Z,17.57
2019-04-26T06:39:02.035Z,17.69
2019-04-26T06:43:00.568Z,17.79
2019-04-26T06:46:10.169Z,18.03
2019-04-26T06:49:43.006Z,18.26
2019-04-26T06:52:21.224Z,18.39
2019-04-26T06:55:14.105Z,18.57
2019-04-26T06:58:32.297Z,18.65
2019-04-26T07:01:31.612Z,18.99
2019-04-26T07:05:15.349Z,19.06
2019-04-26T07:08:57.263Z,19.12
2019-04-26T07:12:17.197Z,19.19
2019-04-26T07:15:52.572Z,19.27
2019-04-26T07:19:11.201Z,19.36
2019-04-26T07:22:35.320Z,19.53
2019-04-26T07:26:10.649Z,19.70
2019-04-26T07:29:30.022Z,19.90
2019-04-26T07:32:40.613Z,20.02
2019-04-26T07:35:25.480Z,20.21
2019-04-26T07:38:54.831Z,20.43
2019-04-26T07:42:24.833Z,20.69
2019-04-26T07:45:48.695Z,20.83
2019-04-26T07:48:57.420Z,20.90
2019-04-26T07:52:25.434Z,21.15
2019-04-26T07:55:55.841Z,21.28
2019-04-26T07:59:29.305Z,21.42
2019-04-26T08:02:48.976Z,21.59
2019-04-26T08:05:39.328Z,21.73
2019-04-26T08:08:15.877Z,21.92
2019-04-26T08:11:16.043Z,21.94
2019-04-26T08:14:29.786Z,21.96
2019-04-26T08:17:34.063Z,22.04
2019-04-26T08:20:18.223Z,22.13
2019-04-26T08:22:55.459Z,22.12
2019-04-26T08:25:30.680Z,22.18
2019-04-26T08:28:07.357Z,22.23
2019-04-26T08:30:47.097Z,22.26
2019-04-26T08:33:26.158Z,22.22
2019-04-26T08:36:01.693Z,22.21
2019-04-26T08:38:36.753Z,22.24
2019-04-26T08:41:11.555Z,22.29
2019-04-26T08:44:05.579Z,22.31
2019-04-26T08:47:00.448Z,22.31
2019-04-26T08:49:57.740Z,22.42
2019-04-26T08:52:34.652Z,22.41
2019-04-26T08:55:10.202Z,22.52
2019-04-26T08:57:46.589Z,22.57
2019-04-26T09:00:47.956Z,22.58
2019-04-26T09:03:42.263Z,22.64
2019-04-26T09:06:30.227Z,22.68
2019-04-26T09:09:14.354Z,22.85
2019-04-26T09:11:59.437Z,23.01
2019-04-26T09:14:28.976Z,23.08
2019-04-26T09:17:00.985Z,23.13
2019-04-26T09:19:33.021Z,23.15
2019-04-26T09:22:13.955Z,23.12
2019-04-26T09:25:01.141Z,23.18
2019-04-26T09:27:42.962Z,23.27
2019-04-26T09:30:38.556Z,23.32
2019-04-26T09:33:15.657Z,23.22
2019-04-26T09:35:47.872Z,23.24
2019-04-26T09:38:19.148Z,23.31
2019-04-26T09:40:52.752Z,23.43
2019-04-26T09:43:42.079Z,23.44
2019-04-26T09:46:44.444Z,23.50
2019-04-26T09:49:33.085Z,23.53
2019-04-26T09:52:08.711Z,23.63
2019-04-26T09:54:40.964Z,23.70
2019-04-26T09:57:14.188Z,23.79
2019-04-26T09:59:48.067Z,23.83
2019-04-26T10:02:23.032Z,23.84
2019-04-26T10:04:59.587Z,23.68
2019-04-26T10:07:33.450Z,23.54
2019-04-26T10:10:06.442Z,23.55
2019-04-26T10:12:50.370Z,23.61
2019-04-26T10:18:40.476Z,24.37
2019-04-26T10:21:31.243Z,24.95
2019-04-26T10:24:04.150Z,25.51
2019-04-26T10:27:40.696Z,25.90
2019-04-26T10:30:28.901Z,25.96
2019-04-26T10:33:10.744Z,26.11
2019-04-26T10:37:05.947Z,26.36
2019-04-26T10:39:45.020Z,26.83
2019-04-26T10:42:23.491Z,27.56
2019-04-26T10:45:20.028Z,27.87
2019-04-26T10:54:11.316Z,28.46
2019-04-26T10:56:54.721Z,28.96
2019-04-26T10:59:31.966Z,29.42
2019-04-26T11:02:08.101Z,29.63
2019-04-26T11:04:41.344Z,29.24
2019-04-26T11:07:12.935Z,29.16
2019-04-26T11:09:44.776Z,28.80
2019-04-26T11:12:17.691Z,28.46
2019-04-26T11:14:53.217Z,28.56
2019-04-26T11:17:25.942Z,28.88
2019-04-26T11:19:57.182Z,29.04
2019-04-26T11:22:29.687Z,29.10
2019-04-26T11:25:02.523Z,28.97
2019-04-26T11:27:34.623Z,28.89
2019-04-26T11:30:11.499Z,29.27
2019-04-26T11:32:40.752Z,29.62
2019-04-26T11:35:11.963Z,30.19
2019-04-26T11:37:46.327Z,30.52
2019-04-26T11:40:17.678Z,30.60
2019-04-26T11:42:49.610Z,30.45
2019-04-26T11:45:20.907Z,29.90
2019-04-26T11:47:56.180Z,29.28
2019-04-26T11:50:26.367Z,28.91
2019-04-26T11:52:58.225Z,28.19
2019-04-26T11:55:31.463Z,27.88
2019-04-26T11:58:02.847Z,27.66
2019-04-26T12:00:39.646Z,27.75
2019-04-26T12:03:11.644Z,27.73
2019-04-26T12:05:57.220Z,27.82
2019-04-26T12:08:56.982Z,27.99
2019-04-26T12:11:34.175Z,28.51
2019-04-26T12:14:04.080Z,28.73
2019-04-26T12:16:47.037Z,29.03
2019-04-26T12:19:09.188Z,29.17
2019-04-26T12:21:41.034Z,29.16
2019-04-26T12:24:12.874Z,29.03
2019-04-26T12:26:46.337Z,29.39
2019-04-26T12:29:18.237Z,29.58
2019-04-26T12:31:50.123Z,29.42
2019-04-26T12:34:21.969Z,29.11
2019-04-26T12:36:54.019Z,28.82
2019-04-26T12:39:26.042Z,28.31
2019-04-26T12:41:57.955Z,28.49
2019-04-26T12:44:56.327Z,28.42
2019-04-26T12:47:38.928Z,28.58
2019-04-26T12:50:15.606Z,28.59
2019-04-26T12:52:46.887Z,28.60
2019-04-26T12:55:20.006Z,28.45
2019-04-26T12:57:50.925Z,28.91
2019-04-26T13:00:32.908Z,29.07
2019-04-26T13:03:04.800Z,29.35
2019-04-26T13:05:36.708Z,29.53
2019-04-26T13:08:08.260Z,29.74
2019-04-26T13:11:17.106Z,30.33
2019-04-26T13:13:59.067Z,30.17
2019-04-26T13:16:36.576Z,29.37
2019-04-26T13:19:08.226Z,29.02
2019-04-26T13:21:39.998Z,28.63
2019-04-26T13:24:11.279Z,28.33
2019-04-26T13:26:43.114Z,28.26
2019-04-26T13:29:14.989Z,28.12
2019-04-26T13:31:46.160Z,28.18
2019-04-26T13:34:17.901Z,28.44
2019-04-26T13:36:49.842Z,28.63
2019-04-26T13:39:22.685Z,28.42
2019-04-26T13:42:02.938Z,28.21
2019-04-26T13:44:46.424Z,28.35
2019-04-26T13:47:52.074Z,28.67
2019-04-26T13:50:31.039Z,28.95
2019-04-26T13:53:02.279Z,28.85
2019-04-26T13:55:33.834Z,28.82
2019-04-26T13:58:05.127Z,28.40
2019-04-26T14:00:39.655Z,28.42
2019-04-26T14:03:10.559Z,28.17
2019-04-26T14:05:42.416Z,28.08
2019-04-26T14:08:14.390Z,28.01
2019-04-26T14:10:49.761Z,27.74
2019-04-26T14:13:20.733Z,27.24
2019-04-26T14:15:52.793Z,27.06
2019-04-26T14:18:23.964Z,26.96
2019-04-26T14:20:58.986Z,26.62
2019-04-26T14:23:39.869Z,26.36
2019-04-26T14:26:13.646Z,26.16
2019-04-26T14:28:54.326Z,26.20
2019-04-26T14:40:21.101Z,26.35
2019-04-26T14:43:05.623Z,25.77
2019-04-26T14:45:25.750Z,26.11
2019-04-26T14:48:00.175Z,26.06
2019-04-26T14:50:32.139Z,25.95
2019-04-26T14:53:04.286Z,26.22
2019-04-26T14:55:36.391Z,26.24
2019-04-26T14:58:08.485Z,26.17
2019-04-26T15:00:41.614Z,26.36
2019-04-26T15:03:28.497Z,26.33
2019-04-26T15:06:08.959Z,26.30
2019-04-26T15:08:40.614Z,26.18
2019-04-26T15:11:13.737Z,26.13
2019-04-26T15:13:45.930Z,26.24
2019-04-26T15:16:17.081Z,26.14
2019-04-26T15:18:48.293Z,26.14
2019-04-26T15:21:20.109Z,25.97
2019-04-26T15:23:55.278Z,26.08
2019-04-26T15:26:29.828Z,26.04
2019-04-26T15:28:58.728Z,26.16
2019-04-26T15:31:29.985Z,26.21
2019-04-26T15:34:03.383Z,26.07
2019-04-26T15:36:35.357Z,26.32
2019-04-26T15:39:19.904Z,26.43
2019-04-26T15:41:55.497Z,26.21
2019-04-26T15:44:32.738Z,26.32
2019-04-26T15:47:23.638Z,26.26
2019-04-26T15:50:09.581Z,26.18
2019-04-26T15:52:36.387Z,26.01
2019-04-26T15:55:08.649Z,26.10
2019-04-26T15:57:39.861Z,26.07
2019-04-26T16:00:13.677Z,26.09
2019-04-26T16:02:45.576Z,25.95
2019-04-26T16:05:16.901Z,25.90
2019-04-26T16:07:48.806Z,25.95
2019-04-26T16:10:19.979Z,26.20
2019-04-26T16:12:52.424Z,26.15
2019-04-26T16:15:24.389Z,25.98
2019-04-26T16:17:56.285Z,26.05
2019-04-26T16:20:33.068Z,25.94
2019-04-26T16:23:06.166Z,26.01
2019-04-26T16:25:34.367Z,26.08
2019-04-26T16:28:30.862Z,26.03
2019-04-26T16:31:24.254Z,26.05
2019-04-26T16:33:59.418Z,25.60
2019-04-26T16:36:32.216Z,25.32
2019-04-26T16:39:06.230Z,25.17
2019-04-26T16:41:38.708Z,25.08
2019-04-26T16:44:10.346Z,24.90
2019-04-26T16:46:43.871Z,24.73
2019-04-26T16:49:15.977Z,24.68
2019-04-26T16:51:54.457Z,24.71
2019-04-26T16:54:22.810Z,24.64
2019-04-26T16:56:59.015Z,24.67
2019-04-26T16:59:27.859Z,24.66
2019-04-26T17:02:02.500Z,24.58
2019-04-26T17:04:36.280Z,24.52
2019-04-26T17:07:06.394Z,24.53
2019-04-26T17:09:55.516Z,24.44
2019-04-26T17:12:14.761Z,24.37
2019-04-26T17:14:47.661Z,24.27
2019-04-26T17:17:18.018Z,24.30
2019-04-26T17:19:49.459Z,24.23
2019-04-26T17:22:46.910Z,24.21
2019-04-26T17:25:26.948Z,24.21
2019-04-26T17:27:58.187Z,24.02
2019-04-26T17:30:34.443Z,23.95
2019-04-26T17:33:02.998Z,23.88
2019-04-26T17:35:36.610Z,23.79
2019-04-26T17:38:11.298Z,23.79
2019-04-26T17:40:42.205Z,23.62
2019-04-26T17:43:13.772Z,23.40
2019-04-26T17:45:45.680Z,23.08
2019-04-26T17:48:17.589Z,22.91
2019-04-26T17:50:48.898Z,22.63
2019-04-26T17:53:28.778Z,22.45
2019-04-26T17:55:55.065Z,22.31
2019-04-26T17:58:30.744Z,22.01
2019-04-26T18:01:01.854Z,21.67
2019-04-26T18:03:34.171Z,21.37
2019-04-26T18:06:09.706Z,21.04
2019-04-26T18:08:51.182Z,20.82
2019-04-26T18:11:19.334Z,20.56
2019-04-26T18:13:47.255Z,20.36
2019-04-26T18:16:22.388Z,20.12
2019-04-26T18:19:14.621Z,19.98
2019-04-26T18:22:08.152Z,19.82
2019-04-26T18:24:39.392Z,19.72
2019-04-26T18:27:11.379Z,19.54
2019-04-26T18:29:43.767Z,19.36
2019-04-26T18:32:19.603Z,19.19
2019-04-26T18:34:53.853Z,18.94
2019-04-26T18:37:26.463Z,18.73
2019-04-26T18:40:03.391Z,18.53
2019-04-26T18:42:37.471Z,18.41
2019-04-26T18:45:09.342Z,18.35
2019-04-26T18:47:45.376Z,18.25
2019-04-26T18:50:18.645Z,18.24
2019-04-26T18:53:19.645Z,18.13
2019-04-26T18:55:59.363Z,18.01
2019-04-26T18:58:34.782Z,17.96
2019-04-26T19:01:10.704Z,17.83
2019-04-26T19:03:44.734Z,17.77
2019-04-26T19:06:28.996Z,17.69
2019-04-26T19:08:52.804Z,17.69
2019-04-26T19:11:26.457Z,17.61
2019-04-26T19:14:23.562Z,17.60
2019-04-26T19:17:17.236Z,17.52
2019-04-26T19:23:22.849Z,17.38
2019-04-26T19:26:59.686Z,17.23
2019-04-26T19:29:36.332Z,17.24
2019-04-26T19:32:09.565Z,17.08
2019-04-26T19:34:49.328Z,17.07
2019-04-26T19:37:19.047Z,17.00
2019-04-26T19:39:51.748Z,16.90
2019-04-26T19:42:27.103Z,16.86
2019-04-26T19:45:11.859Z,16.79
2019-04-26T19:47:56.597Z,16.71
2019-04-26T19:50:48.870Z,16.73
2019-04-26T19:53:43.340Z,16.58
2019-04-26T19:56:41.462Z,16.46
2019-04-26T19:59:13.502Z,16.11
2019-04-26T20:01:44.887Z,15.98
2019-04-26T20:04:17.441Z,15.97
2019-04-26T20:06:54.078Z,16.01
2019-04-26T20:09:26.345Z,16.19
2019-04-26T20:11:59.361Z,16.31
2019-04-26T20:14:44.743Z,16.38
2019-04-26T20:17:13.219Z,16.53
2019-04-26T20:19:47.793Z,16.52
2019-04-26T20:22:22.056Z,16.43
2019-04-26T20:24:57.328Z,16.32
2019-04-26T20:27:28.036Z,16.22
2019-04-26T20:30:02.463Z,16.02
2019-04-26T20:32:37.303Z,16.11
2019-04-26T20:35:26.935Z,15.99
2019-04-26T20:37:56.288Z,16.00
2019-04-26T20:40:28.220Z,16.04
2019-04-26T20:43:05.372Z,15.86
2019-04-26T20:45:41.340Z,15.82
2019-04-26T20:48:06.751Z,15.84
2019-04-26T20:50:38.747Z,16.02
2019-04-26T20:53:12.005Z,16.04
2019-04-26T20:55:47.078Z,15.75
2019-04-26T20:58:18.449Z,15.60
2019-04-26T21:00:54.579Z,15.51
2019-04-26T21:03:27.645Z,15.36
2019-04-26T21:05:59.282Z,15.28
2019-04-26T21:08:31.700Z,15.06
2019-04-26T21:11:03.304Z,14.84
2019-04-26T21:13:35.248Z,14.24
2019-04-26T21:16:10.666Z,14.08
2019-04-26T21:18:43.871Z,14.02
2019-04-26T21:21:16.045Z,14.02
2019-04-26T21:23:49.036Z,13.88
2019-04-26T21:26:54.561Z,13.71
2019-04-26T21:29:45.585Z,13.60
2019-04-26T21:32:37.410Z,13.84
2019-04-26T21:35:13.526Z,13.97
2019-04-26T21:38:04.336Z,13.88
2019-04-26T21:41:04.390Z,13.71
2019-04-26T21:43:36.949Z,13.46
2019-04-26T21:46:08.456Z,13.30
2019-04-26T21:48:44.364Z,13.27
2019-04-26T21:51:16.326Z,13.18
2019-04-26T21:53:49.678Z,13.27
2019-04-26T21:56:20.884Z,13.21
2019-04-26T21:58:53.295Z,13.04
2019-04-26T22:01:25.272Z,12.89
2019-04-26T22:03:58.446Z,12.89
2019-04-26T22:06:30.583Z,12.93
2019-04-26T22:09:10.786Z,13.13
2019-04-26T22:11:44.495Z,12.99
2019-04-26T22:14:21.590Z,12.87
2019-04-26T22:17:21.924Z,12.81
2019-04-26T22:20:14.429Z,12.95
2019-04-26T22:23:07.152Z,12.68
2019-04-26T22:25:41.087Z,12.73
2019-04-26T22:28:13.052Z,12.81
2019-04-26T22:30:45.074Z,12.83
2019-04-26T22:33:16.977Z,12.71
2019-04-26T22:35:50.469Z,12.59
2019-04-26T22:38:26.556Z,12.48
2019-04-26T22:40:56.337Z,12.42
2019-04-26T22:43:49.625Z,12.45
2019-04-26T22:46:46.574Z,12.38
2019-04-26T22:49:13.328Z,12.35
2019-04-26T22:51:45.234Z,12.23
2019-04-26T22:54:17.087Z,12.24
2019-04-26T22:56:48.929Z,12.04
2019-04-26T22:59:22.826Z,12.09
2019-04-26T23:01:54.737Z,11.93
2019-04-26T23:04:26.714Z,12.01
2019-04-26T23:06:59.727Z,12.09
2019-04-26T23:09:30.946Z,12.20
2019-04-26T23:12:16.392Z,12.26
2019-04-26T23:15:04.601Z,12.19
2019-04-26T23:17:54.132Z,12.24
2019-04-26T23:20:47.812Z,12.09
2019-04-26T23:26:45.325Z,10.98
2019-04-26T23:29:18.992Z,10.80
2019-04-26T23:31:53.459Z,10.74
2019-04-26T23:34:26.121Z,10.70
2019-04-26T23:36:58.121Z,10.63
2019-04-26T23:39:29.525Z,10.61
2019-04-26T23:42:01.413Z,10.52
2019-04-26T23:44:36.935Z,10.58
2019-04-26T23:47:18.382Z,10.52
2019-04-26T23:49:41.021Z,10.59
2019-04-26T23:52:14.535Z,10.61
2019-04-26T23:54:46.649Z,10.54
2019-04-26T23:57:18.560Z,10.48
2019-04-26T23:59:51.041Z,10.61
